createdAt,value
2023-04-12T00:01:22.370Z,7.32
2023-04-12T00:03:27.416Z,5.53
2023-04-12T00:07:38.540Z,5.45
2023-04-12T00:09:43.435Z,9.52
2023-04-12T00:11:51.013Z,6.97
2023-04-12T00:13:56.279Z,5.97
2023-04-12T00:16:01.495Z,7.35
2023-04-12T00:18:06.681Z,4.15
2023-04-12T00:20:13.965Z,4.47
2023-04-12T00:22:19.063Z,8.55
2023-04-12T00:24:23.925Z,5.82
2023-04-12T00:26:28.791Z,4.45
2023-04-12T00:28:36.322Z,5.15
2023-04-12T00:30:41.759Z,6.30
2023-04-12T00:32:46.717Z,3.67
2023-04-12T00:34:51.628Z,7.32
2023-04-12T00:36:58.784Z,4.90
2023-04-12T00:39:03.918Z,5.68
2023-04-12T00:41:09.639Z,6.15
2023-04-12T00:43:15.784Z,8.55
2023-04-12T00:45:23.956Z,5.82
2023-04-12T00:47:29.767Z,9.00
2023-04-12T00:49:36.408Z,5.78
2023-04-12T00:51:41.444Z,8.40
2023-04-12T00:53:46.625Z,8.95
2023-04-12T00:58:00.064Z,9.00
2023-04-12T01:00:05.100Z,8.75
2023-04-12T01:02:12.809Z,8.52
2023-04-12T01:04:18.775Z,8.88
2023-04-12T01:06:35.497Z,7.70
2023-04-12T01:08:53.848Z,6.43
2023-04-12T01:11:08.377Z,10.20
2023-04-12T01:13:26.954Z,6.10
2023-04-12T01:15:37.355Z,7.10
2023-04-12T01:17:50.621Z,4.65
2023-04-12T01:20:13.805Z,7.63
2023-04-12T01:22:32.998Z,5.53
2023-04-12T01:24:49.360Z,4.88
2023-04-12T01:26:55.043Z,6.47
2023-04-12T01:29:07.617Z,6.78
2023-04-12T01:31:14.762Z,6.10
2023-04-12T01:33:21.345Z,7.20
2023-04-12T01:35:34.925Z,5.57
2023-04-12T01:37:40.524Z,6.88
2023-04-12T01:39:45.669Z,3.85
2023-04-12T01:41:50.731Z,7.55
2023-04-12T01:43:55.862Z,6.43
2023-04-12T01:48:12.613Z,7.40
2023-04-12T01:50:24.345Z,5.03
2023-04-12T01:52:34.042Z,9.52
2023-04-12T01:54:44.519Z,7.13
2023-04-12T01:56:53.224Z,7.47
2023-04-12T01:59:00.185Z,5.50
2023-04-12T02:01:09.953Z,6.18
2023-04-12T02:03:17.881Z,5.18
2023-04-12T02:05:23.386Z,4.60
2023-04-12T02:07:31.093Z,5.90
2023-04-12T02:09:39.900Z,5.20
2023-04-12T02:11:44.767Z,8.73
2023-04-12T02:13:49.658Z,9.02
2023-04-12T02:15:54.716Z,4.03
2023-04-12T02:20:12.145Z,5.20
2023-04-12T02:22:17.428Z,4.80
2023-04-12T02:24:22.474Z,7.20
2023-04-12T02:26:27.773Z,7.07
2023-04-12T02:28:34.839Z,6.28
2023-04-12T02:30:41.896Z,6.68
2023-04-12T02:32:48.591Z,5.13
2023-04-12T02:35:03.939Z,5.30
2023-04-12T02:37:09.798Z,5.50
2023-04-12T02:39:14.809Z,6.50
2023-04-12T02:41:20.850Z,3.42
2023-04-12T02:43:26.992Z,6.38
2023-04-12T02:45:37.974Z,7.75
2023-04-12T02:51:59.044Z,4.10
2023-04-12T02:54:11.414Z,4.53
2023-04-12T02:56:30.033Z,5.20
2023-04-12T02:58:44.337Z,5.88
2023-04-12T03:00:53.328Z,10.50
2023-04-12T03:03:04.525Z,5.30
2023-04-12T03:05:11.068Z,7.07
2023-04-12T03:07:24.125Z,4.50
2023-04-12T03:09:32.426Z,4.78
2023-04-12T03:11:37.455Z,6.82
2023-04-12T03:13:44.113Z,5.57
2023-04-12T03:15:50.338Z,5.72
2023-04-12T03:17:56.236Z,5.10
2023-04-12T03:20:08.198Z,4.90
2023-04-12T03:22:13.869Z,4.82
2023-04-12T03:24:25.983Z,5.70
2023-04-12T03:26:31.402Z,8.43
2023-04-12T03:28:39.741Z,6.05
2023-04-12T03:32:50.543Z,5.90
2023-04-12T03:34:55.916Z,3.92
2023-04-12T03:37:04.089Z,7.65
2023-04-12T03:39:18.651Z,8.68
2023-04-12T03:41:31.473Z,4.43
2023-04-12T03:43:39.729Z,6.70
2023-04-12T03:45:54.075Z,6.30
2023-04-12T03:47:59.469Z,6.40
2023-04-12T03:50:12.038Z,7.05
2023-04-12T03:54:25.991Z,6.75
2023-04-12T03:56:47.096Z,6.05
2023-04-12T03:59:00.495Z,3.22
2023-04-12T04:01:07.022Z,6.55
2023-04-12T04:03:15.571Z,5.88
2023-04-12T04:05:31.646Z,4.78
2023-04-12T04:07:37.382Z,6.50
2023-04-12T04:09:42.538Z,9.38
2023-04-12T04:11:51.856Z,4.90
2023-04-12T04:13:59.224Z,6.50
2023-04-12T04:16:07.205Z,7.35
2023-04-12T04:18:12.296Z,7.05
2023-04-12T04:20:18.233Z,6.13
2023-04-12T04:22:29.620Z,6.93
2023-04-12T04:24:39.241Z,4.25
2023-04-12T04:26:45.828Z,10.05
2023-04-12T04:29:05.214Z,6.95
2023-04-12T04:31:17.933Z,5.82
2023-04-12T04:33:26.901Z,6.13
2023-04-12T04:35:34.483Z,8.25
2023-04-12T04:37:56.271Z,5.38
2023-04-12T04:40:08.455Z,6.18
2023-04-12T04:42:16.038Z,6.85
2023-04-12T04:44:41.043Z,5.45
2023-04-12T04:46:48.958Z,8.88
2023-04-12T04:48:55.419Z,6.25
2023-04-12T04:51:00.364Z,4.53
2023-04-12T04:53:05.245Z,4.95
2023-04-12T04:55:13.314Z,5.22
2023-04-12T04:57:22.661Z,8.25
2023-04-12T05:01:47.350Z,7.30
2023-04-12T05:03:56.081Z,6.28
2023-04-12T05:06:04.714Z,7.30
2023-04-12T05:08:11.322Z,6.18
2023-04-12T05:10:16.465Z,7.15
2023-04-12T05:12:22.016Z,4.95
2023-04-12T05:14:41.654Z,6.07
2023-04-12T05:16:53.409Z,6.18
2023-04-12T05:18:58.507Z,12.38
2023-04-12T05:21:05.690Z,6.03
2023-04-12T05:23:10.866Z,8.85
2023-04-12T05:25:16.129Z,8.55
2023-04-12T05:27:29.758Z,8.68
2023-04-12T05:29:36.139Z,7.82
2023-04-12T05:31:43.944Z,6.05
2023-04-12T05:33:58.829Z,7.70
2023-04-12T05:36:10.092Z,6.85
2023-04-12T05:38:15.122Z,5.90
2023-04-12T05:40:22.704Z,6.95
2023-04-12T05:42:30.276Z,9.70
2023-04-12T05:44:38.817Z,7.95
2023-04-12T05:46:47.814Z,8.23
2023-04-12T05:48:53.904Z,5.55
2023-04-12T05:51:01.386Z,8.10
2023-04-12T05:53:06.423Z,5.35
2023-04-12T05:55:12.812Z,5.97
2023-04-12T05:57:20.199Z,6.35
2023-04-12T05:59:26.930Z,7.90
2023-04-12T06:01:33.576Z,7.05
2023-04-12T06:03:41.849Z,5.88
2023-04-12T06:05:48.382Z,8.38
2023-04-12T06:07:55.814Z,7.80
2023-04-12T06:10:00.749Z,7.40
2023-04-12T06:12:05.753Z,8.43
2023-04-12T06:14:14.476Z,8.00
2023-04-12T06:16:20.003Z,6.35
2023-04-12T06:18:25.038Z,7.47
2023-04-12T06:20:30.198Z,7.25
2023-04-12T06:24:42.929Z,8.32
2023-04-12T06:26:49.493Z,11.07
2023-04-12T06:30:59.926Z,10.23
2023-04-12T06:33:07.319Z,8.55
2023-04-12T06:35:12.684Z,5.95
2023-04-12T06:39:22.306Z,6.20
2023-04-12T06:41:29.842Z,8.10
2023-04-12T06:43:39.739Z,8.65
2023-04-12T06:45:44.713Z,5.85
2023-04-12T06:47:50.283Z,5.65
2023-04-12T06:49:58.221Z,5.95
2023-04-12T06:52:03.298Z,4.28
2023-04-12T06:54:08.285Z,6.10
2023-04-12T06:56:13.169Z,6.82
2023-04-12T06:58:21.062Z,7.60
2023-04-12T07:00:26.802Z,6.28
2023-04-12T07:02:31.972Z,6.13
2023-04-12T07:04:37.591Z,6.85
2023-04-12T07:06:42.798Z,5.38
2023-04-12T07:10:56.581Z,6.80
2023-04-12T07:13:03.817Z,5.22
2023-04-12T07:15:12.328Z,4.88
2023-04-12T07:17:17.420Z,6.03
2023-04-12T07:19:22.269Z,4.97
2023-04-12T07:21:27.844Z,5.18
2023-04-12T07:23:32.797Z,2.92
2023-04-12T07:25:40.611Z,3.65
2023-04-12T07:27:45.555Z,3.90
2023-04-12T07:29:50.506Z,4.93
2023-04-12T07:31:57.940Z,3.08
2023-04-12T07:34:03.075Z,3.70
2023-04-12T07:36:09.366Z,5.30
2023-04-12T07:38:16.561Z,5.30
2023-04-12T07:40:25.011Z,2.38
2023-04-12T07:42:29.903Z,4.25
2023-04-12T07:44:38.507Z,3.38
2023-04-12T07:46:44.066Z,4.25
2023-04-12T07:48:51.609Z,3.05
2023-04-12T07:50:56.690Z,3.35
2023-04-12T07:53:21.325Z,3.33
2023-04-12T07:55:26.526Z,4.72
2023-04-12T07:57:33.565Z,5.20
2023-04-12T07:59:39.062Z,4.88
2023-04-12T08:01:43.937Z,4.72
2023-04-12T08:03:51.931Z,5.07
2023-04-12T08:05:57.169Z,4.80
2023-04-12T08:10:07.201Z,5.47
2023-04-12T08:12:12.111Z,3.90
2023-04-12T08:14:16.984Z,4.07
2023-04-12T08:16:22.171Z,4.88
2023-04-12T08:18:28.429Z,3.28
2023-04-12T08:20:35.974Z,3.78
2023-04-12T08:22:41.244Z,4.55
2023-04-12T08:26:51.758Z,5.35
2023-04-12T08:31:02.599Z,3.72
2023-04-12T08:33:07.624Z,3.35
2023-04-12T08:35:12.828Z,4.95
2023-04-12T08:39:25.000Z,3.55
2023-04-12T08:41:29.989Z,3.22
2023-04-12T08:43:36.568Z,4.28
2023-04-12T08:45:41.836Z,3.05
2023-04-12T08:49:52.805Z,3.33
2023-04-12T08:56:14.103Z,4.07
2023-04-12T08:58:19.178Z,2.88
2023-04-12T09:00:24.931Z,2.88
2023-04-12T09:02:30.347Z,3.88
2023-04-12T09:04:35.405Z,3.33
2023-04-12T09:06:41.743Z,2.67
2023-04-12T09:08:57.522Z,2.78
2023-04-12T09:13:10.101Z,2.50
2023-04-12T09:15:18.556Z,3.20
2023-04-12T09:17:27.070Z,2.47
2023-04-12T09:19:36.135Z,2.08
2023-04-12T09:21:55.304Z,3.80
2023-04-12T09:24:12.363Z,2.95
2023-04-12T09:26:32.489Z,4.07
2023-04-12T09:28:37.353Z,3.30
2023-04-12T09:30:45.134Z,3.00
2023-04-12T09:32:51.326Z,2.65
2023-04-12T09:35:01.469Z,3.50
2023-04-12T09:37:16.426Z,2.63
2023-04-12T09:39:21.295Z,4.37
2023-04-12T09:41:27.589Z,2.17
2023-04-12T09:43:44.553Z,3.28
2023-04-12T09:45:49.500Z,2.67
2023-04-12T09:47:55.274Z,2.55
2023-04-12T09:50:00.606Z,2.63
2023-04-12T09:54:12.931Z,3.97
2023-04-12T09:56:17.989Z,1.90
2023-04-12T10:00:34.555Z,4.75
2023-04-12T10:02:41.604Z,4.03
2023-04-12T10:04:47.487Z,3.50
2023-04-12T10:06:52.577Z,2.92
2023-04-12T10:08:59.291Z,3.45
2023-04-12T10:11:04.423Z,1.90
2023-04-12T10:13:10.441Z,2.83
2023-04-12T10:15:18.000Z,2.28
2023-04-12T10:17:28.487Z,3.65
2023-04-12T10:19:34.800Z,1.88
2023-04-12T10:21:39.897Z,2.80
2023-04-12T10:23:47.493Z,2.95
2023-04-12T10:25:55.611Z,2.03
2023-04-12T10:28:00.768Z,4.32
2023-04-12T10:30:27.296Z,3.63
2023-04-12T10:32:35.532Z,3.40
2023-04-12T10:34:45.477Z,3.67
2023-04-12T10:36:57.752Z,4.00
2023-04-12T10:39:12.472Z,4.15
2023-04-12T10:41:19.895Z,3.97
2023-04-12T10:43:27.956Z,3.28
2023-04-12T10:45:40.215Z,4.80
2023-04-12T10:48:04.198Z,3.53
2023-04-12T10:50:26.733Z,3.38
2023-04-12T10:52:39.406Z,3.80
2023-04-12T10:54:44.657Z,4.40
2023-04-12T10:56:51.514Z,3.20
2023-04-12T10:59:09.841Z,4.40
2023-04-12T11:01:23.695Z,5.22
2023-04-12T11:03:31.698Z,6.78
2023-04-12T11:06:16.153Z,3.33
2023-04-12T11:08:49.388Z,3.35
2023-04-12T11:13:14.357Z,2.55
2023-04-12T11:15:19.828Z,3.65
2023-04-12T11:17:30.912Z,3.63
2023-04-12T11:19:40.753Z,4.07
2023-04-12T11:21:46.822Z,4.35
2023-04-12T11:23:52.048Z,3.50
2023-04-12T11:28:11.066Z,4.30
2023-04-12T11:30:23.830Z,5.28
2023-04-12T11:32:29.995Z,3.95
2023-04-12T11:34:38.981Z,5.03
2023-04-12T11:36:45.351Z,3.45
2023-04-12T11:38:50.464Z,3.58
2023-04-12T11:40:55.703Z,3.28
2023-04-12T11:43:00.645Z,4.43
2023-04-12T11:45:13.985Z,4.70
2023-04-12T11:47:24.136Z,4.35
2023-04-12T11:49:29.224Z,3.72
2023-04-12T11:51:36.841Z,3.67
2023-04-12T11:53:41.963Z,4.15
2023-04-12T11:55:51.154Z,3.35
2023-04-12T11:57:57.215Z,3.97
2023-04-12T12:00:06.244Z,3.83
2023-04-12T12:02:23.608Z,5.77
2023-04-12T12:04:30.832Z,5.38
2023-04-12T12:06:39.160Z,7.20
2023-04-12T12:08:44.775Z,3.78
2023-04-12T12:11:04.560Z,7.80
2023-04-12T12:13:14.321Z,3.35
2023-04-12T12:15:19.485Z,5.05
2023-04-12T12:19:31.879Z,4.85
2023-04-12T12:21:39.359Z,5.75
2023-04-12T12:23:46.344Z,4.22
2023-04-12T12:25:51.602Z,3.67
2023-04-12T12:28:00.458Z,5.88
2023-04-12T12:30:06.577Z,6.10
2023-04-12T12:32:16.112Z,4.15
2023-04-12T12:34:22.351Z,4.68
2023-04-12T12:36:34.393Z,4.55
2023-04-12T12:38:43.291Z,3.88
2023-04-12T12:40:48.360Z,6.97
2023-04-12T12:42:55.157Z,5.75
2023-04-12T12:45:00.188Z,4.60
2023-04-12T12:47:14.165Z,4.28
2023-04-12T12:49:19.818Z,3.15
2023-04-12T12:51:24.879Z,4.30
2023-04-12T12:53:29.782Z,3.50
2023-04-12T12:55:37.452Z,3.58
2023-04-12T12:57:42.792Z,3.95
2023-04-12T13:01:52.414Z,4.85
2023-04-12T13:06:04.252Z,3.67
2023-04-12T13:08:09.179Z,4.13
2023-04-12T13:10:14.702Z,4.57
2023-04-12T13:12:22.235Z,4.28
2023-04-12T13:14:27.574Z,4.78
2023-04-12T13:16:32.542Z,3.72
2023-04-12T13:18:37.735Z,3.95
2023-04-12T13:22:47.963Z,3.40
2023-04-12T13:24:53.358Z,5.32
2023-04-12T13:26:58.483Z,5.82
2023-04-12T13:29:06.017Z,4.75
2023-04-12T13:31:11.009Z,5.20
2023-04-12T13:33:19.983Z,5.32
2023-04-12T13:35:26.704Z,3.28
2023-04-12T13:37:31.640Z,4.15
2023-04-12T13:39:37.139Z,3.13
2023-04-12T13:41:42.057Z,4.88
2023-04-12T13:43:47.043Z,5.00
2023-04-12T13:45:54.723Z,3.05
2023-04-12T13:47:59.882Z,3.60
2023-04-12T13:50:04.925Z,3.30
2023-04-12T13:52:10.392Z,4.60
2023-04-12T13:54:15.814Z,3.72
2023-04-12T13:58:26.180Z,4.35
2023-04-12T14:02:38.509Z,4.68
2023-04-12T14:04:55.272Z,3.63
2023-04-12T14:07:03.792Z,5.45
2023-04-12T14:11:14.051Z,3.88
2023-04-12T14:13:19.127Z,4.57
2023-04-12T14:15:24.358Z,4.15
2023-04-12T14:19:40.732Z,3.88
2023-04-12T14:21:45.836Z,4.68
2023-04-12T14:25:56.347Z,4.78
2023-04-12T14:28:01.661Z,5.10
2023-04-12T14:30:07.904Z,4.75
2023-04-12T14:32:12.836Z,3.53
2023-04-12T14:34:17.829Z,4.15
2023-04-12T14:38:32.859Z,3.88
2023-04-12T14:40:37.783Z,6.07
2023-04-12T14:42:42.845Z,6.72
2023-04-12T14:44:47.849Z,5.13
2023-04-12T14:46:52.887Z,4.90
2023-04-12T14:49:01.287Z,4.30
2023-04-12T14:51:06.851Z,4.30
2023-04-12T14:53:16.508Z,3.47
2023-04-12T14:55:21.702Z,3.70
2023-04-12T14:57:26.765Z,2.85
2023-04-12T15:01:38.041Z,4.03
2023-04-12T15:03:45.324Z,3.80
2023-04-12T15:05:50.267Z,3.45
2023-04-12T15:07:55.170Z,2.95
2023-04-12T15:10:04.285Z,5.93
2023-04-12T15:12:10.955Z,3.83
2023-04-12T15:14:18.095Z,4.10
2023-04-12T15:16:23.544Z,3.70
2023-04-12T15:18:28.528Z,6.43
2023-04-12T15:20:33.398Z,3.13
2023-04-12T15:22:38.639Z,3.42
2023-04-12T15:26:52.868Z,3.22
2023-04-12T15:28:58.064Z,3.08
2023-04-12T15:31:02.956Z,3.75
2023-04-12T15:33:07.834Z,2.88
2023-04-12T15:37:21.769Z,4.18
2023-04-12T15:39:26.850Z,3.20
2023-04-12T15:41:38.039Z,3.00
2023-04-12T15:43:49.481Z,2.78
2023-04-12T15:45:55.603Z,4.13
2023-04-12T15:48:00.896Z,4.07
2023-04-12T15:50:06.031Z,2.22
2023-04-12T15:54:16.333Z,6.40
2023-04-12T15:56:24.548Z,2.60
2023-04-12T15:58:29.970Z,3.17
2023-04-12T16:00:38.836Z,2.80
2023-04-12T16:02:53.707Z,3.50
2023-04-12T16:04:58.944Z,2.75
2023-04-12T16:07:04.947Z,4.18
2023-04-12T16:09:10.091Z,4.65
2023-04-12T16:13:20.774Z,4.80
2023-04-12T16:15:25.834Z,5.82
2023-04-12T16:19:39.023Z,5.60
2023-04-12T16:21:45.036Z,11.43
2023-04-12T16:23:51.057Z,5.13
2023-04-12T16:25:56.494Z,4.22
2023-04-12T16:28:02.661Z,6.90
2023-04-12T16:30:10.788Z,9.43
2023-04-12T16:32:15.916Z,7.13
2023-04-12T16:36:31.810Z,5.18
2023-04-12T16:38:36.983Z,4.78
2023-04-12T16:42:47.578Z,4.18
2023-04-12T16:44:52.508Z,4.10
2023-04-12T16:46:57.488Z,3.75
2023-04-12T16:49:03.934Z,3.28
2023-04-12T16:51:11.808Z,3.72
2023-04-12T16:53:17.691Z,6.38
2023-04-12T16:55:22.950Z,5.88
2023-04-12T16:59:34.696Z,3.47
2023-04-12T17:01:39.582Z,3.30
2023-04-12T17:03:44.578Z,3.08
2023-04-12T17:05:49.573Z,2.40
2023-04-12T17:07:57.663Z,3.22
2023-04-12T17:10:02.482Z,3.58
2023-04-12T17:12:09.611Z,3.53
2023-04-12T17:14:15.086Z,3.13
2023-04-12T17:16:20.075Z,4.03
2023-04-12T17:18:24.989Z,4.82
2023-04-12T17:20:30.572Z,5.47
2023-04-12T17:22:35.645Z,5.93
2023-04-12T17:24:43.242Z,3.30
2023-04-12T17:26:48.671Z,3.95
2023-04-12T17:28:54.821Z,3.03
2023-04-12T17:30:59.964Z,3.08
2023-04-12T17:35:11.569Z,2.92
2023-04-12T17:37:16.932Z,2.58
2023-04-12T17:39:21.921Z,4.93
2023-04-12T17:41:29.936Z,4.43
2023-04-12T17:43:34.918Z,6.45
2023-04-12T17:47:45.308Z,4.68
2023-04-12T17:49:50.252Z,5.18
2023-04-12T17:51:55.122Z,3.15
2023-04-12T17:54:00.708Z,5.82
2023-04-12T17:56:06.024Z,8.98
2023-04-12T17:58:14.319Z,7.90
2023-04-12T18:00:20.619Z,11.57
2023-04-12T18:02:25.889Z,4.32
2023-04-12T18:04:31.249Z,4.00
2023-04-12T18:06:36.259Z,13.05
2023-04-12T18:08:41.521Z,4.40
2023-04-12T18:10:46.753Z,2.97
2023-04-12T18:14:59.025Z,2.10
2023-04-12T18:17:03.943Z,1.10
2023-04-12T18:19:25.097Z,1.50
2023-04-12T18:21:29.955Z,3.42
2023-04-12T18:23:43.333Z,2.47
2023-04-12T18:25:59.617Z,2.47
2023-04-12T18:28:04.967Z,3.03
2023-04-12T18:32:25.507Z,2.17
2023-04-12T18:34:30.586Z,1.52
2023-04-12T18:36:37.114Z,2.38
2023-04-12T18:38:42.100Z,1.27
2023-04-12T18:40:47.037Z,2.28
2023-04-12T18:42:52.005Z,1.55
2023-04-12T18:44:58.450Z,1.30
2023-04-12T18:47:06.457Z,2.15
2023-04-12T18:49:12.094Z,3.35
2023-04-12T18:51:17.369Z,1.48
2023-04-12T18:55:27.094Z,0.77
2023-04-12T18:59:36.948Z,1.60
2023-04-12T19:01:41.972Z,1.10
2023-04-12T19:03:50.011Z,2.00
2023-04-12T19:05:56.927Z,0.80
2023-04-12T19:08:03.658Z,0.95
2023-04-12T19:10:09.799Z,0.88
2023-04-12T19:12:14.664Z,1.13
2023-04-12T19:14:19.659Z,1.48
2023-04-12T19:16:24.830Z,0.85
2023-04-12T19:18:31.682Z,5.28
2023-04-12T19:20:39.355Z,1.80
2023-04-12T19:22:44.287Z,1.38
2023-04-12T19:24:50.038Z,1.10
2023-04-12T19:26:54.947Z,0.60
2023-04-12T19:28:59.906Z,1.17
2023-04-12T19:31:10.494Z,2.03
2023-04-12T19:33:16.183Z,1.27
2023-04-12T19:37:34.117Z,0.85
2023-04-12T19:39:40.828Z,1.35
2023-04-12T19:41:48.594Z,1.52
2023-04-12T19:43:54.669Z,1.23
2023-04-12T19:46:01.555Z,0.90
2023-04-12T19:48:06.782Z,1.40
2023-04-12T19:52:20.274Z,2.85
2023-04-12T19:54:27.746Z,1.85
2023-04-12T19:56:32.983Z,1.63
2023-04-12T20:00:42.822Z,0.82
2023-04-12T20:02:47.784Z,1.25
2023-04-12T20:04:53.603Z,1.73
2023-04-12T20:06:58.463Z,1.25
2023-04-12T20:09:03.517Z,1.10
2023-04-12T20:13:16.792Z,1.70
2023-04-12T20:15:21.681Z,2.40
2023-04-12T20:17:26.716Z,1.25
2023-04-12T20:19:31.998Z,1.15
2023-04-12T20:21:37.292Z,1.48
2023-04-12T20:23:42.484Z,1.92
2023-04-12T20:25:49.185Z,1.08
2023-04-12T20:27:56.719Z,1.65
2023-04-12T20:30:01.857Z,1.65
2023-04-12T20:32:08.834Z,1.83
2023-04-12T20:34:17.928Z,1.63
2023-04-12T20:36:26.409Z,2.30
2023-04-12T20:38:31.721Z,2.25
2023-04-12T20:40:36.751Z,1.35
2023-04-12T20:42:42.675Z,2.30
2023-04-12T20:44:50.586Z,1.73
2023-04-12T20:46:55.503Z,2.00
2023-04-12T20:49:00.596Z,3.28
2023-04-12T20:53:13.219Z,2.13
2023-04-12T20:55:18.226Z,2.22
2023-04-12T20:57:23.962Z,2.40
2023-04-12T20:59:30.511Z,1.88
2023-04-12T21:01:38.024Z,1.92
2023-04-12T21:03:43.735Z,3.53
2023-04-12T21:05:50.634Z,3.58
2023-04-12T21:07:55.564Z,1.83
2023-04-12T21:10:01.944Z,2.83
2023-04-12T21:12:07.376Z,3.38
2023-04-12T21:14:13.052Z,4.13
2023-04-12T21:16:17.982Z,6.32
2023-04-12T21:18:25.542Z,4.75
2023-04-12T21:20:30.713Z,3.22
2023-04-12T21:22:35.668Z,3.42
2023-04-12T21:24:41.014Z,3.70
2023-04-12T21:26:46.243Z,4.07
2023-04-12T21:28:51.184Z,4.32
2023-04-12T21:30:58.417Z,3.13
2023-04-12T21:33:04.563Z,3.25
2023-04-12T21:35:13.218Z,2.70
2023-04-12T21:37:18.236Z,2.67
2023-04-12T21:39:23.081Z,2.20
2023-04-12T21:41:29.825Z,2.20
2023-04-12T21:43:34.686Z,2.40
2023-04-12T21:45:39.931Z,5.68
2023-04-12T21:49:50.220Z,4.57
2023-04-12T21:51:59.351Z,5.93
2023-04-12T21:54:04.476Z,3.22
2023-04-12T21:56:10.494Z,3.78
2023-04-12T21:58:15.993Z,3.50
2023-04-12T22:02:25.654Z,1.83
2023-04-12T22:04:31.835Z,2.83
2023-04-12T22:06:37.148Z,2.80
2023-04-12T22:08:44.679Z,3.20
2023-04-12T22:10:49.637Z,2.67
2023-04-12T22:12:54.502Z,2.85
2023-04-12T22:15:00.140Z,1.98
2023-04-12T22:17:06.271Z,2.83
2023-04-12T22:19:11.258Z,3.17
2023-04-12T22:21:16.763Z,3.00
2023-04-12T22:23:21.625Z,2.17
2023-04-12T22:25:29.758Z,3.40
2023-04-12T22:27:35.347Z,2.88
2023-04-12T22:29:40.727Z,3.20
2023-04-12T22:31:45.695Z,2.67
2023-04-12T22:33:55.183Z,1.75
2023-04-12T22:36:02.273Z,2.70
2023-04-12T22:38:07.173Z,2.00
2023-04-12T22:40:14.345Z,2.20
2023-04-12T22:42:26.115Z,1.42
2023-04-12T22:44:38.541Z,3.42
2023-04-12T22:46:44.027Z,2.28
2023-04-12T22:48:49.414Z,2.53
2023-04-12T22:52:59.590Z,1.73
2023-04-12T22:55:04.652Z,1.73
2023-04-12T22:57:09.623Z,1.90
2023-04-12T22:59:17.753Z,1.80
2023-04-12T23:01:22.758Z,1.33
2023-04-12T23:03:28.986Z,1.38
2023-04-12T23:05:35.130Z,0.82
2023-04-12T23:07:41.689Z,1.42
2023-04-12T23:09:48.034Z,1.00
2023-04-12T23:11:53.844Z,1.83
2023-04-12T23:13:59.725Z,1.23
2023-04-12T23:16:10.035Z,1.23
2023-04-12T23:18:15.005Z,1.15
2023-04-12T23:20:20.600Z,1.08
2023-04-12T23:22:55.816Z,1.60
2023-04-12T23:25:02.413Z,1.60
2023-04-12T23:27:08.169Z,1.20
2023-04-12T23:29:13.092Z,1.38
2023-04-12T23:31:21.216Z,0.70
2023-04-12T23:33:26.250Z,1.00
2023-04-12T23:35:31.141Z,1.58
2023-04-12T23:37:36.217Z,1.00
2023-04-12T23:39:41.802Z,1.38
2023-04-12T23:41:47.909Z,1.33
2023-04-12T23:43:54.329Z,0.60
2023-04-12T23:46:00.164Z,1.65
2023-04-12T23:48:08.494Z,1.10
2023-04-12T23:50:13.872Z,1.23
2023-04-12T23:54:24.544Z,0.80
2023-04-12T23:56:29.905Z,1.00
2023-04-12T23:58:35.235Z,0.60
